This is the latest recevied weather packets stored in our database for station/object KI7YRV. If no packets are shown the sender has not sent any weather packets the latest 10 day(s).
| Time | Temp. | Humidity | Pressure | Rain* | Wind** | Luminosity | Snow |
|---|---|---|---|---|---|---|---|
| 1778122218 | 10° C | 43% | 1015.6 hPa | 0 mm | - | - | - |
| 1778119817 | 12.78° C | 37% | 1015.6 hPa | 0 mm | - | - | - |
| 1778118030 | 14.44° C | 33% | 1015.8 hPa | 0 mm | - | - | - |
| 1778117436 | 14.44° C | 32% | 1015.8 hPa | 0 mm | - | - | - |
| 1778110828 | 15° C | 30% | 1016.2 hPa | 0 mm | - | - | - |
| 1778109639 | 15° C | 30% | 1016.2 hPa | 0 mm | - | - | - |
| 1778104818 | 14.44° C | 32% | 1017.5 hPa | 0 mm | - | - | - |
| 1778103031 | 12.78° C | 34% | 1018 hPa | 0 mm | - | - | - |
| 1778101225 | 12.22° C | 36% | 1018.5 hPa | 0 mm | - | - | - |
| 1778099440 | 11.67° C | 37% | 1018.8 hPa | 0 mm | - | - | - |
| 1778097019 | 11.11° C | 40% | 1019.3 hPa | 0 mm | - | - | - |
| 1778092831 | 8.33° C | 50% | 1020.4 hPa | 0 mm | - | - | - |
| 1778089817 | 6.67° C | 56% | 1021 hPa | 0 mm | - | - | - |
| 1778088626 | 5.56° C | 60% | 1021.1 hPa | 0 mm | - | - | - |
| 1778087417 | 5° C | 65% | 1021.2 hPa | 0 mm | - | - | - |
| 1778086822 | 4.44° C | 69% | 1021.4 hPa | 0 mm | - | - | - |
| 1778086231 | 4.44° C | 69% | 1021.5 hPa | 0 mm | - | - | - |
| 1778079619 | 0.56° C | 84% | 1022 hPa | 0 mm | - | - | - |
| 1778077858 | -0.56° C | 94% | 1022 hPa | 0 mm | - | - | - |
| 1778077259 | -1.11° C | 97% | 1022 hPa | 0 mm | - | - | - |
| 1778073031 | -1.67° C | 98% | 1021.5 hPa | 0 mm | - | - | - |
| 1778072417 | -2.22° C | 99% | 1021.2 hPa | 0 mm | - | - | - |
| 1778067636 | -3.33° C | 99% | 1020.9 hPa | 0 mm | - | - | - |
| 1778067021 | -3.33° C | 99% | 1020.9 hPa | 0 mm | - | - | - |
| 1778066466 | -2.78° C | 99% | 1021 hPa | 0 mm | - | - | - |
* Rain latest hour (hover to see other rain measurements)
** Current wind speed in m/s (hover to see current wind gust speed)